createdAt,value
2018-02-19T00:00:00.607Z,87.40
2018-02-19T00:01:00.600Z,87.59
2018-02-19T00:02:00.591Z,87.64
2018-02-19T00:03:00.571Z,87.88
2018-02-19T00:04:00.562Z,87.78
2018-02-19T00:05:00.550Z,87.59
2018-02-19T00:06:00.538Z,87.40
2018-02-19T00:07:00.522Z,87.21
2018-02-19T00:08:00.509Z,87.40
2018-02-19T00:09:00.500Z,87.40
2018-02-19T00:10:00.487Z,87.21
2018-02-19T00:11:00.476Z,87.02
2018-02-19T00:12:00.464Z,87.50
2018-02-19T00:13:00.454Z,87.50
2018-02-19T00:14:00.442Z,87.69
2018-02-19T00:15:00.434Z,88.17
2018-02-19T00:16:00.423Z,87.98
2018-02-19T00:17:00.412Z,87.98
2018-02-19T00:18:00.437Z,87.88
2018-02-19T00:19:00.384Z,87.88
2018-02-19T00:20:00.372Z,87.98
2018-02-19T00:21:00.361Z,88.26
2018-02-19T00:22:00.352Z,87.98
2018-02-19T00:23:00.341Z,87.98
2018-02-19T00:24:00.330Z,87.78
2018-02-19T00:25:00.320Z,87.69
2018-02-19T00:26:00.308Z,87.50
2018-02-19T00:27:00.296Z,88.26
2018-02-19T00:28:00.286Z,88.35
2018-02-19T00:29:00.274Z,88.45
2018-02-19T00:30:00.263Z,88.26
2018-02-19T00:31:00.249Z,88.35
2018-02-19T00:32:00.234Z,88.35
2018-02-19T00:33:00.223Z,88.64
2018-02-19T00:34:00.212Z,88.45
2018-02-19T00:35:00.202Z,88.45
2018-02-19T00:36:00.189Z,88.17
2018-02-19T00:37:00.177Z,88.17
2018-02-19T00:38:00.166Z,88.35
2018-02-19T00:39:00.158Z,88.26
2018-02-19T00:40:00.148Z,88.45
2018-02-19T00:41:00.137Z,88.54
2018-02-19T00:42:00.124Z,88.54
2018-02-19T00:43:00.113Z,88.54
2018-02-19T00:44:00.105Z,88.35
2018-02-19T00:45:00.094Z,88.54
2018-02-19T00:46:00.079Z,88.54
2018-02-19T00:47:00.064Z,88.92
2018-02-19T00:48:00.051Z,88.64
2018-02-19T00:49:00.039Z,88.82
2018-02-19T00:50:00.028Z,89.20
2018-02-19T00:51:00.016Z,88.92
2018-02-19T00:52:00.004Z,89.01
2018-02-19T00:52:59.993Z,88.73
2018-02-19T00:53:59.983Z,88.73
2018-02-19T00:54:59.974Z,88.73
2018-02-19T00:55:59.962Z,88.92
2018-02-19T00:56:59.951Z,89.39
2018-02-19T00:57:59.940Z,89.30
2018-02-19T00:58:59.931Z,89.49
2018-02-19T00:59:59.916Z,89.49
2018-02-19T01:00:59.906Z,89.30
2018-02-19T01:01:59.894Z,89.30
2018-02-19T01:02:59.877Z,89.68
2018-02-19T01:03:59.867Z,89.49
2018-02-19T01:04:59.856Z,89.68
2018-02-19T01:05:59.843Z,89.49
2018-02-19T01:06:59.833Z,89.68
2018-02-19T01:07:59.820Z,89.49
2018-02-19T01:08:59.808Z,89.39
2018-02-19T01:09:59.797Z,89.39
2018-02-19T01:10:59.789Z,89.58
2018-02-19T01:11:59.778Z,89.49
2018-02-19T01:12:59.767Z,89.96
2018-02-19T01:13:59.755Z,89.87
2018-02-19T01:14:59.743Z,89.87
2018-02-19T01:15:59.732Z,89.68
2018-02-19T01:16:59.721Z,89.87
2018-02-19T01:17:59.709Z,89.68
2018-02-19T01:18:59.693Z,89.87
2018-02-19T01:19:59.681Z,90.34
2018-02-19T01:20:59.671Z,90.06
2018-02-19T01:21:59.659Z,89.96
2018-02-19T01:22:59.653Z,89.77
2018-02-19T01:23:59.639Z,89.87
2018-02-19T01:24:59.628Z,90.15
2018-02-19T01:25:59.616Z,90.25
2018-02-19T01:26:59.600Z,90.15
2018-02-19T01:27:59.590Z,90.25
2018-02-19T01:28:59.578Z,89.87
2018-02-19T01:29:59.566Z,89.96
2018-02-19T01:30:59.553Z,89.96
2018-02-19T01:31:59.543Z,90.81
2018-02-19T01:32:59.532Z,90.44
2018-02-19T01:33:59.520Z,90.25
2018-02-19T01:34:59.511Z,90.15
2018-02-19T01:35:59.502Z,90.63
2018-02-19T01:36:59.489Z,90.53
2018-02-19T01:37:59.477Z,91.00
2018-02-19T01:38:59.465Z,90.72
2018-02-19T01:39:59.454Z,90.53
2018-02-19T01:40:59.443Z,90.91
2018-02-19T01:41:59.430Z,91.29
2018-02-19T01:42:59.414Z,91.00
2018-02-19T01:43:59.403Z,91.48
2018-02-19T01:44:59.392Z,91.38
2018-02-19T01:45:59.379Z,91.19
2018-02-19T01:46:59.372Z,91.48
2018-02-19T01:47:59.356Z,91.48
2018-02-19T01:48:59.344Z,91.76
2018-02-19T01:49:59.334Z,91.48
2018-02-19T01:50:59.324Z,91.38
2018-02-19T01:51:59.312Z,91.29
2018-02-19T01:52:59.302Z,91.48
2018-02-19T01:53:59.291Z,91.48
2018-02-19T01:54:59.278Z,91.67
2018-02-19T01:55:59.267Z,91.38
2018-02-19T01:56:59.255Z,91.38
2018-02-19T01:57:59.248Z,91.57
2018-02-19T01:58:59.228Z,92.14
2018-02-19T01:59:59.215Z,92.05
2018-02-19T02:00:59.204Z,91.86
2018-02-19T02:01:59.192Z,91.95
2018-02-19T02:02:59.179Z,92.61
2018-02-19T02:03:59.169Z,92.47
2018-02-19T02:04:59.156Z,92.43
2018-02-19T02:05:59.145Z,92.19
2018-02-19T02:06:59.136Z,92.19
2018-02-19T02:07:59.125Z,92.76
2018-02-19T02:08:59.113Z,93.08
2018-02-19T02:09:59.102Z,93.18
2018-02-19T02:10:59.090Z,92.80
2018-02-19T02:11:59.078Z,92.85
2018-02-19T02:12:59.067Z,92.85
2018-02-19T02:13:59.055Z,92.66
2018-02-19T02:14:59.038Z,92.85
2018-02-19T02:15:59.027Z,92.76
2018-02-19T02:16:59.015Z,92.85
2018-02-19T02:17:59.004Z,92.66
2018-02-19T02:18:58.991Z,92.85
2018-02-19T02:19:58.979Z,92.66
2018-02-19T02:20:58.969Z,92.66
2018-02-19T02:21:58.956Z,93.13
2018-02-19T02:22:58.948Z,93.04
2018-02-19T02:23:58.936Z,93.23
2018-02-19T02:24:58.925Z,93.23
2018-02-19T02:25:58.913Z,92.85
2018-02-19T02:26:58.900Z,93.80
2018-02-19T02:27:58.893Z,93.70
2018-02-19T02:28:58.878Z,93.32
2018-02-19T02:29:58.866Z,93.61
2018-02-19T02:30:58.849Z,93.51
2018-02-19T02:31:58.837Z,93.89
2018-02-19T02:32:58.827Z,93.70
2018-02-19T02:33:58.814Z,94.27
2018-02-19T02:34:58.802Z,93.80
2018-02-19T02:35:58.792Z,93.70
2018-02-19T02:36:58.782Z,93.89
2018-02-19T02:37:58.772Z,93.89
2018-02-19T02:38:58.764Z,94.08
2018-02-19T02:39:58.747Z,93.80
2018-02-19T02:40:58.734Z,93.80
2018-02-19T02:41:58.723Z,93.80
2018-02-19T02:42:58.713Z,94.56
2018-02-19T02:43:58.699Z,94.56
2018-02-19T02:44:58.688Z,94.37
2018-02-19T02:45:58.677Z,94.65
2018-02-19T02:46:58.658Z,94.56
2018-02-19T02:47:58.646Z,94.37
2018-02-19T02:48:58.635Z,94.27
2018-02-19T02:49:58.625Z,94.37
2018-02-19T02:50:58.613Z,94.08
2018-02-19T02:51:58.599Z,94.27
2018-02-19T02:52:58.588Z,94.27
2018-02-19T02:53:58.580Z,94.84
2018-02-19T02:54:58.570Z,94.18
2018-02-19T02:55:58.554Z,94.56
2018-02-19T02:56:58.542Z,94.65
2018-02-19T02:57:58.532Z,94.46
2018-02-19T02:58:58.518Z,94.93
2018-02-19T02:59:58.508Z,94.65
2018-02-19T03:00:58.496Z,95.12
2018-02-19T03:01:58.483Z,94.37
2018-02-19T03:02:58.467Z,95.03
2018-02-19T03:03:58.455Z,94.65
2018-02-19T03:04:58.444Z,94.18
2018-02-19T03:05:58.431Z,94.84
2018-02-19T03:06:58.419Z,94.56
2018-02-19T03:07:58.407Z,94.93
2018-02-19T03:08:58.396Z,94.74
2018-02-19T03:09:58.384Z,94.84
2018-02-19T03:10:58.379Z,94.84
2018-02-19T03:11:58.365Z,94.93
2018-02-19T03:12:58.353Z,94.74
2018-02-19T03:13:58.341Z,94.84
2018-02-19T03:14:58.329Z,94.84
2018-02-19T03:15:58.317Z,94.46
2018-02-19T03:16:58.306Z,94.84
2018-02-19T03:17:58.294Z,94.65
2018-02-19T03:18:58.277Z,94.74
2018-02-19T03:19:58.267Z,94.74
2018-02-19T03:20:58.254Z,94.65
2018-02-19T03:21:58.242Z,94.56
2018-02-19T03:22:58.229Z,95.12
2018-02-19T03:23:58.218Z,94.37
2018-02-19T03:24:58.207Z,94.65
2018-02-19T03:25:58.195Z,94.84
2018-02-19T03:26:58.186Z,94.74
2018-02-19T03:27:58.190Z,94.65
2018-02-19T03:28:58.163Z,94.74
2018-02-19T03:29:58.151Z,94.74
2018-02-19T03:30:58.138Z,94.65
2018-02-19T03:31:58.123Z,94.46
2018-02-19T03:32:58.113Z,94.74
2018-02-19T03:33:58.099Z,95.21
2018-02-19T03:34:58.091Z,95.21
2018-02-19T03:35:58.079Z,94.93
2018-02-19T03:36:58.067Z,94.65
2018-02-19T03:37:58.055Z,94.84
2018-02-19T03:38:58.044Z,94.93
2018-02-19T03:39:58.032Z,95.40
2018-02-19T03:40:58.021Z,94.84
2018-02-19T03:41:58.009Z,95.31
2018-02-19T03:42:57.991Z,95.50
2018-02-19T03:43:57.980Z,95.50
2018-02-19T03:44:57.969Z,95.50
2018-02-19T03:45:57.957Z,95.31
2018-02-19T03:46:57.944Z,95.31
2018-02-19T03:47:57.932Z,95.50
2018-02-19T03:48:57.920Z,95.50
2018-02-19T03:49:57.909Z,95.59
2018-02-19T03:50:57.901Z,95.31
2018-02-19T03:51:57.889Z,95.21
2018-02-19T03:52:57.877Z,95.21
2018-02-19T03:53:57.866Z,95.31
2018-02-19T03:54:57.853Z,95.31
2018-02-19T03:55:57.841Z,95.31
2018-02-19T03:56:57.830Z,95.50
2018-02-19T03:57:57.818Z,95.31
2018-02-19T03:58:57.801Z,95.31
2018-02-19T03:59:57.789Z,95.40
2018-02-19T04:00:57.778Z,95.40
2018-02-19T04:01:57.768Z,95.78
2018-02-19T04:02:57.754Z,95.50
2018-02-19T04:03:57.741Z,94.93
2018-02-19T04:04:57.729Z,95.40
2018-02-19T04:05:57.719Z,95.50
2018-02-19T04:06:57.710Z,95.12
2018-02-19T04:07:57.698Z,95.40
2018-02-19T04:08:57.685Z,95.31
2018-02-19T04:09:57.675Z,94.93
2018-02-19T04:10:57.661Z,95.40
2018-02-19T04:11:57.653Z,95.12
2018-02-19T04:12:57.639Z,95.50
2018-02-19T04:13:57.627Z,94.93
2018-02-19T04:14:57.610Z,95.03
2018-02-19T04:15:57.598Z,95.31
2018-02-19T04:16:57.589Z,95.50
2018-02-19T04:17:57.575Z,95.03
2018-02-19T04:18:57.562Z,95.31
2018-02-19T04:19:57.550Z,95.03
2018-02-19T04:20:57.539Z,95.31
2018-02-19T04:21:57.527Z,95.03
2018-02-19T04:22:57.521Z,94.93
2018-02-19T04:23:57.508Z,94.84
2018-02-19T04:24:57.497Z,95.12
2018-02-19T04:25:57.484Z,94.84
2018-02-19T04:26:57.472Z,94.46
2018-02-19T04:27:57.461Z,94.74
2018-02-19T04:28:57.449Z,94.84
2018-02-19T04:29:57.437Z,94.84
2018-02-19T04:30:57.421Z,94.74
2018-02-19T04:31:57.408Z,94.56
2018-02-19T04:32:57.397Z,94.56
2018-02-19T04:33:57.385Z,94.84
2018-02-19T04:34:57.377Z,94.37
2018-02-19T04:35:57.366Z,94.37
2018-02-19T04:36:57.353Z,94.56
2018-02-19T04:37:57.341Z,94.27
2018-02-19T04:38:57.326Z,94.18
2018-02-19T04:39:57.313Z,93.89
2018-02-19T04:40:57.302Z,93.89
2018-02-19T04:41:57.290Z,93.89
2018-02-19T04:42:57.278Z,93.70
2018-02-19T04:43:57.266Z,93.51
2018-02-19T04:44:57.257Z,93.89
2018-02-19T04:45:57.242Z,93.89
2018-02-19T04:46:57.235Z,93.42
2018-02-19T04:47:57.222Z,93.61
2018-02-19T04:48:57.211Z,93.61
2018-02-19T04:49:57.199Z,93.42
2018-02-19T04:50:57.186Z,93.42
2018-02-19T04:51:57.175Z,93.70
2018-02-19T04:52:57.163Z,92.94
2018-02-19T04:53:57.151Z,93.04
2018-02-19T04:54:57.138Z,93.80
2018-02-19T04:55:57.122Z,92.94
2018-02-19T04:56:57.111Z,93.04
2018-02-19T04:57:57.100Z,92.85
2018-02-19T04:58:57.087Z,93.13
2018-02-19T04:59:57.076Z,93.04
2018-02-19T05:00:57.064Z,93.61
2018-02-19T05:01:57.052Z,93.32
2018-02-19T05:02:57.044Z,93.61
2018-02-19T05:03:57.033Z,93.70
2018-02-19T05:04:57.021Z,93.13
2018-02-19T05:05:57.009Z,93.32
2018-02-19T05:06:56.998Z,93.80
2018-02-19T05:07:56.985Z,93.13
2018-02-19T05:08:56.973Z,92.94
2018-02-19T05:09:56.962Z,92.94
2018-02-19T05:10:56.947Z,93.23
2018-02-19T05:11:56.933Z,93.13
2018-02-19T05:12:56.921Z,93.13
2018-02-19T05:13:56.942Z,93.23
2018-02-19T05:14:56.898Z,93.13
2018-02-19T05:15:56.886Z,93.04
2018-02-19T05:16:56.874Z,93.61
2018-02-19T05:17:56.868Z,93.23
2018-02-19T05:18:56.854Z,93.80
2018-02-19T05:19:56.842Z,93.80
2018-02-19T05:20:56.831Z,93.04
2018-02-19T05:21:56.819Z,93.23
2018-02-19T05:22:56.874Z,92.47
2018-02-19T05:23:56.795Z,92.66
2018-02-19T05:24:56.784Z,93.51
2018-02-19T05:25:56.771Z,93.23
2018-02-19T05:26:56.755Z,93.23
2018-02-19T05:27:56.745Z,93.23
2018-02-19T05:28:56.733Z,93.32
2018-02-19T05:29:56.721Z,92.38
2018-02-19T05:30:56.708Z,92.57
2018-02-19T05:31:56.697Z,93.13
2018-02-19T05:32:56.685Z,92.76
2018-02-19T05:33:56.678Z,92.47
2018-02-19T05:34:56.666Z,92.94
2018-02-19T05:35:56.661Z,92.66
2018-02-19T05:36:56.645Z,92.38
2018-02-19T05:37:56.632Z,92.85
2018-02-19T05:38:56.617Z,92.85
2018-02-19T05:39:56.603Z,92.85
2018-02-19T05:40:56.591Z,92.94
2018-02-19T05:41:56.580Z,92.66
2018-02-19T05:42:56.572Z,93.18
2018-02-19T05:43:56.560Z,92.33
2018-02-19T05:44:56.549Z,92.71
2018-02-19T05:45:56.537Z,92.43
2018-02-19T05:46:56.528Z,92.14
2018-02-19T05:47:56.514Z,91.81
2018-02-19T05:48:56.502Z,92.14
2018-02-19T05:49:56.491Z,92.14
2018-02-19T05:50:56.474Z,91.29
2018-02-19T05:51:56.463Z,91.67
2018-02-19T05:52:56.451Z,91.67
2018-02-19T05:53:56.440Z,92.05
2018-02-19T05:54:56.427Z,91.29
2018-02-19T05:55:56.415Z,91.29
2018-02-19T05:56:56.403Z,90.72
2018-02-19T05:57:56.392Z,91.29
2018-02-19T05:58:56.383Z,91.19
2018-02-19T05:59:56.372Z,91.86
2018-02-19T06:00:56.360Z,91.76
2018-02-19T06:01:56.349Z,91.76
2018-02-19T06:02:56.336Z,91.67
2018-02-19T06:03:56.325Z,91.67
2018-02-19T06:04:56.313Z,91.86
2018-02-19T06:05:56.301Z,90.72
2018-02-19T06:06:56.285Z,91.19
2018-02-19T06:07:56.273Z,91.00
2018-02-19T06:08:56.261Z,91.34
2018-02-19T06:09:56.250Z,91.43
2018-02-19T06:10:56.237Z,91.05
2018-02-19T06:11:56.226Z,91.72
2018-02-19T06:12:56.214Z,91.43
2018-02-19T06:13:56.203Z,91.62
2018-02-19T06:14:56.194Z,91.43
2018-02-19T06:15:56.182Z,91.34
2018-02-19T06:16:56.171Z,91.72
2018-02-19T06:17:56.160Z,91.34
2018-02-19T06:18:56.147Z,91.53
2018-02-19T06:19:56.136Z,91.24
2018-02-19T06:20:56.127Z,91.72
2018-02-19T06:21:56.112Z,91.62
2018-02-19T06:22:56.100Z,91.34
2018-02-19T06:23:56.084Z,91.34
2018-02-19T06:24:56.073Z,91.34
2018-02-19T06:25:56.061Z,91.34
2018-02-19T06:26:56.049Z,91.62
2018-02-19T06:27:56.037Z,91.53
2018-02-19T06:28:56.026Z,91.62
2018-02-19T06:29:56.014Z,91.53
2018-02-19T06:30:56.007Z,91.15
2018-02-19T06:31:55.995Z,91.62
2018-02-19T06:32:55.984Z,91.43
2018-02-19T06:33:55.972Z,91.43
2018-02-19T06:34:55.959Z,91.43
2018-02-19T06:35:55.997Z,91.15
2018-02-19T06:36:55.936Z,91.62
2018-02-19T06:37:55.925Z,91.24
2018-02-19T06:38:55.912Z,91.53
2018-02-19T06:39:55.897Z,91.43
2018-02-19T06:40:55.885Z,91.43
2018-02-19T06:41:55.874Z,91.43
2018-02-19T06:42:55.865Z,91.43
2018-02-19T06:43:55.857Z,91.34
2018-02-19T06:44:55.843Z,91.15
2018-02-19T06:45:55.831Z,91.43
2018-02-19T06:46:55.814Z,91.81
2018-02-19T06:47:55.803Z,91.81
2018-02-19T06:48:55.792Z,91.15
2018-02-19T06:49:55.780Z,91.43
2018-02-19T06:50:55.767Z,91.15
2018-02-19T06:51:55.756Z,91.15
2018-02-19T06:52:55.745Z,91.34
2018-02-19T06:53:55.734Z,91.24
2018-02-19T06:54:55.725Z,92.00
2018-02-19T06:55:55.718Z,92.00
2018-02-19T06:56:55.702Z,91.62
2018-02-19T06:57:55.692Z,91.81
2018-02-19T06:58:55.681Z,91.34
2018-02-19T06:59:55.671Z,91.43
2018-02-19T07:00:55.655Z,91.24
2018-02-19T07:01:55.644Z,91.81
2018-02-19T07:02:55.627Z,91.43
2018-02-19T07:03:55.616Z,92.00
2018-02-19T07:04:55.604Z,91.62
2018-02-19T07:05:55.593Z,91.72
2018-02-19T07:06:55.581Z,91.53
2018-02-19T07:07:55.569Z,91.24
2018-02-19T07:08:55.558Z,91.53
2018-02-19T07:09:55.547Z,91.29
2018-02-19T07:10:55.539Z,90.72
2018-02-19T07:11:55.527Z,91.19
2018-02-19T07:12:55.516Z,91.29
2018-02-19T07:13:55.505Z,90.81
2018-02-19T07:14:55.491Z,90.53
2018-02-19T07:15:55.481Z,90.25
2018-02-19T07:16:55.469Z,90.63
2018-02-19T07:17:55.458Z,90.53
2018-02-19T07:18:55.442Z,90.72
2018-02-19T07:19:55.430Z,90.34
2018-02-19T07:20:55.419Z,90.44
2018-02-19T07:21:55.407Z,90.34
2018-02-19T07:22:55.395Z,90.11
2018-02-19T07:23:55.384Z,90.44
2018-02-19T07:24:55.372Z,90.53
2018-02-19T07:25:55.361Z,90.34
2018-02-19T07:26:55.353Z,90.81
2018-02-19T07:27:55.342Z,89.87
2018-02-19T07:28:55.332Z,90.25
2018-02-19T07:29:55.320Z,89.77
2018-02-19T07:30:55.307Z,89.58
2018-02-19T07:31:55.296Z,89.58
2018-02-19T07:32:55.285Z,89.49
2018-02-19T07:33:55.274Z,89.39
2018-02-19T07:34:55.257Z,89.30
2018-02-19T07:35:55.246Z,89.30
2018-02-19T07:36:55.235Z,89.20
2018-02-19T07:37:55.225Z,89.58
2018-02-19T07:38:55.212Z,89.20
2018-02-19T07:39:55.200Z,89.30
2018-02-19T07:40:55.189Z,89.20
2018-02-19T07:41:55.178Z,89.30
2018-02-19T07:42:55.171Z,89.30
2018-02-19T07:43:55.160Z,88.92
2018-02-19T07:44:55.149Z,88.82
2018-02-19T07:45:55.137Z,89.58
2018-02-19T07:46:55.121Z,89.39
2018-02-19T07:47:55.110Z,89.87
2018-02-19T07:48:55.101Z,89.68
2018-02-19T07:49:55.089Z,89.77
2018-02-19T07:51:55.070Z,90.53
2018-02-19T07:52:55.060Z,90.34
2018-02-19T07:53:55.049Z,90.25
2018-02-19T07:54:55.037Z,89.77
2018-02-19T07:55:55.026Z,89.96
2018-02-19T07:56:55.018Z,89.77
2018-02-19T07:57:55.004Z,89.58
2018-02-19T07:58:54.993Z,89.68
2018-02-19T07:59:54.978Z,89.87
2018-02-19T08:00:54.967Z,89.49
2018-02-19T08:01:54.956Z,89.77
2018-02-19T08:02:54.945Z,89.30
2018-02-19T08:03:54.933Z,89.30
2018-02-19T08:04:54.924Z,89.30
2018-02-19T08:05:54.911Z,89.58
2018-02-19T08:06:54.900Z,89.11
2018-02-19T08:07:54.893Z,89.49
2018-02-19T08:08:54.885Z,89.30
2018-02-19T08:09:54.872Z,89.49
2018-02-19T08:10:54.861Z,89.49
2018-02-19T08:11:54.850Z,89.06
2018-02-19T08:12:54.840Z,88.30
2018-02-19T08:13:54.829Z,88.30
2018-02-19T08:14:54.819Z,87.98
2018-02-19T08:15:54.803Z,88.17
2018-02-19T08:16:54.793Z,87.78
2018-02-19T08:17:54.782Z,88.07
2018-02-19T08:18:54.771Z,88.17
2018-02-19T08:19:54.760Z,87.69
2018-02-19T08:20:54.750Z,88.07
2018-02-19T08:21:54.739Z,87.98
2018-02-19T08:22:54.728Z,87.78
2018-02-19T08:23:54.776Z,87.50
2018-02-19T08:24:54.711Z,87.69
2018-02-19T08:25:54.701Z,88.07
2018-02-19T08:26:54.690Z,87.78
2018-02-19T08:27:54.680Z,88.07
2018-02-19T08:28:54.670Z,87.98
2018-02-19T08:29:54.661Z,87.88
2018-02-19T08:30:54.650Z,88.17
2018-02-19T08:31:54.634Z,87.98
2018-02-19T08:32:54.624Z,87.98
2018-02-19T08:33:54.615Z,88.17
2018-02-19T08:34:54.603Z,87.98
2018-02-19T08:35:54.593Z,87.92
2018-02-19T08:36:54.582Z,87.40
2018-02-19T08:37:54.573Z,87.40
2018-02-19T08:38:54.610Z,87.54
2018-02-19T08:39:54.556Z,87.78
2018-02-19T08:40:54.548Z,87.02
2018-02-19T08:41:54.540Z,86.93
2018-02-19T08:42:54.525Z,86.98
2018-02-19T08:43:54.516Z,87.07
2018-02-19T08:44:54.507Z,87.16
2018-02-19T08:45:54.497Z,87.35
2018-02-19T08:46:54.484Z,86.98
2018-02-19T08:47:54.469Z,86.88
2018-02-19T08:48:54.480Z,86.98
2018-02-19T08:49:54.451Z,87.07
2018-02-19T08:50:54.441Z,86.31
2018-02-19T08:51:54.435Z,86.55
2018-02-19T08:52:54.426Z,85.78
2018-02-19T08:53:54.416Z,85.31
2018-02-19T08:54:54.410Z,85.03
2018-02-19T08:55:54.393Z,84.84
2018-02-19T08:56:54.383Z,84.36
2018-02-19T08:57:54.374Z,84.27
2018-02-19T08:58:54.363Z,84.46
2018-02-19T08:59:54.354Z,83.42
2018-02-19T09:00:54.345Z,83.42
2018-02-19T09:01:54.338Z,83.74
2018-02-19T09:02:54.325Z,83.94
2018-02-19T09:03:54.322Z,83.08
2018-02-19T09:04:54.312Z,82.98
2018-02-19T09:05:54.303Z,82.32
2018-02-19T09:06:54.293Z,82.85
2018-02-19T09:07:54.284Z,82.75
2018-02-19T09:08:54.275Z,82.85
2018-02-19T09:09:54.267Z,82.23
2018-02-19T09:10:54.258Z,82.28
2018-02-19T09:11:54.245Z,82.28
2018-02-19T09:12:54.237Z,82.18
2018-02-19T09:13:54.228Z,82.32
2018-02-19T09:14:54.219Z,81.85
2018-02-19T09:15:54.211Z,81.56
2018-02-19T09:16:54.202Z,81.23
2018-02-19T09:17:54.195Z,80.18
2018-02-19T09:18:54.192Z,79.23
2018-02-19T09:19:54.182Z,79.36
2018-02-19T09:20:54.175Z,78.80
2018-02-19T09:21:54.169Z,78.70
2018-02-19T09:22:54.159Z,78.03
2018-02-19T09:23:54.152Z,77.81
2018-02-19T09:24:54.145Z,78.47
2018-02-19T09:25:54.138Z,78.28
2018-02-19T09:26:54.131Z,78.28
2018-02-19T09:27:54.119Z,78.19
2018-02-19T09:28:54.111Z,78.15
2018-02-19T09:29:54.106Z,78.91
2018-02-19T09:30:54.098Z,78.95
2018-02-19T09:31:54.093Z,78.53
2018-02-19T09:32:54.084Z,78.81
2018-02-19T09:33:54.083Z,79.28
2018-02-19T09:34:54.071Z,79.28
2018-02-19T09:35:54.068Z,79.28
2018-02-19T09:36:54.062Z,79.57
2018-02-19T09:37:54.055Z,79.95
2018-02-19T09:38:54.048Z,79.19
2018-02-19T09:39:54.041Z,79.34
2018-02-19T09:40:54.069Z,79.76
2018-02-19T09:41:54.028Z,80.38
2018-02-19T09:42:54.020Z,79.91
2018-02-19T09:43:54.010Z,80.10
2018-02-19T09:44:54.002Z,80.10
2018-02-19T09:45:53.995Z,80.48
2018-02-19T09:46:53.988Z,80.52
2018-02-19T09:47:53.980Z,79.85
2018-02-19T09:48:53.977Z,80.43
2018-02-19T09:49:53.968Z,79.57
2018-02-19T09:50:53.959Z,79.76
2018-02-19T09:51:53.956Z,79.28
2018-02-19T09:52:53.955Z,79.61
2018-02-19T09:53:53.944Z,79.19
2018-02-19T09:54:53.935Z,78.43
2018-02-19T09:55:53.924Z,78.75
2018-02-19T09:56:53.918Z,78.38
2018-02-19T09:57:53.910Z,78.15
2018-02-19T09:58:53.902Z,78.72
2018-02-19T09:59:53.901Z,78.43
2018-02-19T10:00:53.894Z,78.53
2018-02-19T10:01:53.891Z,78.53
2018-02-19T10:02:53.879Z,78.62
2018-02-19T10:03:53.873Z,78.38
2018-02-19T10:04:53.867Z,78.56
2018-02-19T10:05:53.860Z,78.75
2018-02-19T10:06:53.854Z,78.61
2018-02-19T10:07:53.842Z,77.94
2018-02-19T10:08:53.836Z,77.14
2018-02-19T10:09:53.829Z,76.86
2018-02-19T10:10:53.823Z,76.76
2018-02-19T10:11:53.815Z,77.43
2018-02-19T10:12:53.809Z,77.62
2018-02-19T10:13:53.807Z,77.05
2018-02-19T10:14:53.800Z,77.14
2018-02-19T10:15:53.794Z,76.29
2018-02-19T10:16:53.787Z,76.57
2018-02-19T10:17:53.783Z,77.33
2018-02-19T10:18:53.775Z,77.14
2018-02-19T10:19:53.768Z,77.39
2018-02-19T10:20:53.764Z,77.48
2018-02-19T10:21:53.756Z,77.01
2018-02-19T10:22:53.749Z,77.77
2018-02-19T10:23:53.738Z,78.15
2018-02-19T10:24:53.743Z,77.77
2018-02-19T10:25:53.726Z,77.77
2018-02-19T10:26:53.725Z,77.77
2018-02-19T10:27:53.712Z,77.77
2018-02-19T10:28:53.708Z,78.09
2018-02-19T10:29:53.699Z,77.90
2018-02-19T10:30:53.692Z,77.67
2018-02-19T10:31:53.689Z,77.77
2018-02-19T10:32:53.682Z,77.81
2018-02-19T10:33:53.676Z,77.81
2018-02-19T10:34:53.670Z,77.62
2018-02-19T10:35:53.663Z,77.14
2018-02-19T10:36:53.658Z,77.52
2018-02-19T10:37:53.650Z,77.14
2018-02-19T10:38:53.642Z,76.86
2018-02-19T10:39:53.632Z,77.33
2018-02-19T10:40:53.625Z,77.14
2018-02-19T10:41:53.619Z,76.95
2018-02-19T10:42:53.611Z,76.29
2018-02-19T10:43:53.604Z,76.57
2018-02-19T10:44:53.598Z,77.01
2018-02-19T10:45:53.591Z,76.54
2018-02-19T10:46:53.583Z,77.20
2018-02-19T10:47:53.581Z,77.11
2018-02-19T10:48:53.575Z,77.58
2018-02-19T10:49:53.567Z,77.29
2018-02-19T10:50:53.564Z,77.39
2018-02-19T10:51:53.553Z,77.90
2018-02-19T10:52:53.547Z,77.62
2018-02-19T10:53:53.539Z,77.71
2018-02-19T10:54:53.532Z,77.52
2018-02-19T10:55:53.522Z,77.14
2018-02-19T10:56:53.515Z,77.33
2018-02-19T10:57:53.507Z,76.80
2018-02-19T10:58:53.499Z,77.24
2018-02-19T10:59:53.492Z,76.71
2018-02-19T11:00:53.485Z,76.20
2018-02-19T11:01:53.481Z,76.39
2018-02-19T11:02:53.470Z,75.62
2018-02-19T11:03:53.468Z,75.43
2018-02-19T11:04:53.490Z,76.04
2018-02-19T11:05:53.454Z,75.53
2018-02-19T11:06:53.446Z,75.53
2018-02-19T11:07:53.441Z,75.43
2018-02-19T11:08:53.436Z,74.90
2018-02-19T11:09:53.426Z,75.09
2018-02-19T11:10:53.419Z,75.04
2018-02-19T11:11:53.417Z,74.27
2018-02-19T11:12:53.401Z,73.65
2018-02-19T11:13:53.393Z,72.70
2018-02-19T11:14:53.386Z,72.95
2018-02-19T11:15:53.380Z,72.47
2018-02-19T11:16:53.373Z,72.19
2018-02-19T11:17:53.370Z,71.62
2018-02-19T11:18:53.361Z,72.25
2018-02-19T11:19:53.359Z,72.44
2018-02-19T11:20:53.353Z,72.38
2018-02-19T11:21:53.347Z,72.60
2018-02-19T11:22:53.340Z,72.13
2018-02-19T11:23:53.334Z,71.59
2018-02-19T11:24:53.328Z,70.83
2018-02-19T11:25:53.323Z,70.04
2018-02-19T11:26:53.333Z,69.85
2018-02-19T11:27:53.311Z,69.71
2018-02-19T11:28:53.302Z,69.81
2018-02-19T11:29:53.332Z,69.91
2018-02-19T11:30:53.291Z,69.81
2018-02-19T11:31:53.286Z,69.91
2018-02-19T11:32:53.281Z,70.38
2018-02-19T11:33:53.275Z,70.48
2018-02-19T11:34:53.270Z,70.54
2018-02-19T11:35:53.327Z,70.31
2018-02-19T11:36:53.265Z,71.07
2018-02-19T11:37:53.260Z,71.64
2018-02-19T11:38:55.448Z,71.64
2018-02-19T11:39:53.252Z,72.02
2018-02-19T11:40:53.244Z,73.00
2018-02-19T11:41:53.239Z,72.91
2018-02-19T11:42:53.232Z,72.15
2018-02-19T11:43:53.223Z,72.15
2018-02-19T11:44:53.222Z,71.77
2018-02-19T11:45:53.212Z,71.77
2018-02-19T11:46:53.207Z,71.86
2018-02-19T11:47:53.200Z,72.06
2018-02-19T11:48:53.195Z,72.15
2018-02-19T11:49:53.190Z,72.00
2018-02-19T11:50:53.183Z,71.96
2018-02-19T11:51:53.187Z,71.48
2018-02-19T11:52:53.209Z,71.86
2018-02-19T11:53:53.172Z,71.58
2018-02-19T11:54:53.165Z,71.86
2018-02-19T11:55:53.160Z,71.67
2018-02-19T11:56:53.162Z,72.06
2018-02-19T11:57:53.148Z,71.77
2018-02-19T11:58:53.141Z,71.86
2018-02-19T11:59:53.142Z,71.77
2018-02-19T12:00:53.127Z,72.00
2018-02-19T12:01:53.119Z,71.71
2018-02-19T12:02:53.113Z,71.62
2018-02-19T12:03:53.111Z,72.28
2018-02-19T12:04:53.106Z,71.62
2018-02-19T12:05:53.100Z,71.52
2018-02-19T12:06:53.093Z,71.66
2018-02-19T12:07:53.083Z,71.66
2018-02-19T12:08:53.077Z,71.75
2018-02-19T12:09:53.071Z,71.56
2018-02-19T12:10:53.064Z,71.46
2018-02-19T12:11:53.059Z,70.89
2018-02-19T12:12:53.053Z,70.86
2018-02-19T12:13:53.048Z,70.95
2018-02-19T12:14:53.040Z,71.04
2018-02-19T12:15:53.039Z,70.95
2018-02-19T12:16:53.034Z,70.92
2018-02-19T12:17:53.028Z,70.92
2018-02-19T12:18:53.022Z,71.11
2018-02-19T12:19:53.052Z,71.86
2018-02-19T12:20:53.009Z,71.67
2018-02-19T12:21:53.004Z,72.06
2018-02-19T12:22:52.997Z,72.06
2018-02-19T12:23:52.988Z,72.34
2018-02-19T12:24:52.982Z,72.38
2018-02-19T12:25:52.975Z,72.00
2018-02-19T12:26:52.968Z,71.81
2018-02-19T12:27:52.963Z,71.33
2018-02-19T12:28:52.957Z,70.82
2018-02-19T12:29:52.954Z,70.86
2018-02-19T12:30:52.943Z,70.54
2018-02-19T12:31:52.942Z,71.43
2018-02-19T12:32:52.936Z,71.23
2018-02-19T12:33:52.930Z,71.52
2018-02-19T12:34:52.923Z,71.33
2018-02-19T12:35:52.918Z,71.71
2018-02-19T12:36:52.911Z,71.33
2018-02-19T12:37:52.904Z,71.52
2018-02-19T12:38:52.897Z,71.14
2018-02-19T12:39:52.887Z,71.52
2018-02-19T12:40:52.882Z,71.23
2018-02-19T12:41:52.877Z,71.52
2018-02-19T12:42:52.868Z,71.27
2018-02-19T12:43:52.862Z,71.27
2018-02-19T12:44:52.855Z,70.51
2018-02-19T12:45:52.850Z,70.61
2018-02-19T12:46:52.842Z,70.79
2018-02-19T12:47:52.840Z,70.38
2018-02-19T12:48:52.833Z,70.19
2018-02-19T12:49:52.828Z,70.13
2018-02-19T12:50:52.821Z,70.32
2018-02-19T12:51:52.816Z,70.61
2018-02-19T12:52:52.810Z,69.62